sensor_id;sensor_type;location;lat;lon;timestamp;pressure;altitude;pressure_sealevel;temperature;humidity
66681;BME280;53575;51.366;12.350;2023-05-20T00:00:55;101070.31;;;12.52;84.26
66681;BME280;53575;51.366;12.350;2023-05-20T00:03:21;101074.69;;;12.47;84.16
66681;BME280;53575;51.366;12.350;2023-05-20T00:05:46;101063.34;;;12.42;84.65
66681;BME280;53575;51.366;12.350;2023-05-20T00:08:12;101058.09;;;12.43;84.73
66681;BME280;53575;51.366;12.350;2023-05-20T00:10:38;101058.09;;;12.45;85.15
66681;BME280;53575;51.366;12.350;2023-05-20T00:13:03;101051.97;;;12.40;85.00
66681;BME280;53575;51.366;12.350;2023-05-20T00:15:29;101053.75;;;12.44;85.18
66681;BME280;53575;51.366;12.350;2023-05-20T00:17:56;101048.50;;;12.44;85.41
66681;BME280;53575;51.366;12.350;2023-05-20T00:20:22;101048.50;;;12.44;85.35
66681;BME280;53575;51.366;12.350;2023-05-20T00:22:47;101056.34;;;12.42;85.29
66681;BME280;53575;51.366;12.350;2023-05-20T00:25:12;101052.00;;;12.44;85.69
66681;BME280;53575;51.366;12.350;2023-05-20T00:27:41;101049.34;;;12.40;85.46
66681;BME280;53575;51.366;12.350;2023-05-20T00:30:07;101040.63;;;12.42;85.65
66681;BME280;53575;51.366;12.350;2023-05-20T00:32:33;101044.09;;;12.46;85.59
66681;BME280;53575;51.366;12.350;2023-05-20T00:34:59;101043.22;;;12.47;85.57
66681;BME280;53575;51.366;12.350;2023-05-20T00:37:25;101033.63;;;12.49;85.49
66681;BME280;53575;51.366;12.350;2023-05-20T00:39:51;101038.88;;;12.44;85.73
66681;BME280;53575;51.366;12.350;2023-05-20T00:42:27;101031.88;;;12.43;85.97
66681;BME280;53575;51.366;12.350;2023-05-20T00:44:53;101036.25;;;12.46;86.39
66681;BME280;53575;51.366;12.350;2023-05-20T00:47:20;101044.97;;;12.54;86.19
66681;BME280;53575;51.366;12.350;2023-05-20T00:49:47;101041.50;;;12.43;86.39
66681;BME280;53575;51.366;12.350;2023-05-20T00:52:14;101047.59;;;12.43;86.71
66681;BME280;53575;51.366;12.350;2023-05-20T00:54:40;101051.09;;;12.47;86.78
66681;BME280;53575;51.366;12.350;2023-05-20T00:57:06;101042.34;;;12.51;86.46
66681;BME280;53575;51.366;12.350;2023-05-20T00:59:35;101036.22;;;12.55;86.24
66681;BME280;53575;51.366;12.350;2023-05-20T01:02:02;101039.72;;;12.57;86.41
66681;BME280;53575;51.366;12.350;2023-05-20T01:04:29;101051.06;;;12.62;86.11
66681;BME280;53575;51.366;12.350;2023-05-20T01:06:56;101040.59;;;12.56;86.73
66681;BME280;53575;51.366;12.350;2023-05-20T01:09:22;101039.69;;;12.62;86.43
66681;BME280;53575;51.366;12.350;2023-05-20T01:11:54;101035.34;;;12.64;86.40
66681;BME280;53575;51.366;12.350;2023-05-20T01:14:22;101044.97;;;12.53;86.93
66681;BME280;53575;51.366;12.350;2023-05-20T01:16:50;101034.44;;;12.62;86.73
66681;BME280;53575;51.366;12.350;2023-05-20T01:19:26;101039.72;;;12.63;87.09
66681;BME280;53575;51.366;12.350;2023-05-20T01:21:59;101031.84;;;12.62;87.03
66681;BME280;53575;51.366;12.350;2023-05-20T01:24:25;101040.56;;;12.62;86.62
66681;BME280;53575;51.366;12.350;2023-05-20T01:26:51;101039.66;;;12.69;87.34
66681;BME280;53575;51.366;12.350;2023-05-20T01:29:16;101037.94;;;12.72;87.00
66681;BME280;53575;51.366;12.350;2023-05-20T01:31:43;101043.16;;;12.70;86.92
66681;BME280;53575;51.366;12.350;2023-05-20T01:34:11;101046.69;;;12.55;87.54
66681;BME280;53575;51.366;12.350;2023-05-20T01:36:38;101028.31;;;12.69;87.41
66681;BME280;53575;51.366;12.350;2023-05-20T01:39:04;101033.53;;;12.74;86.89
66681;BME280;53575;51.366;12.350;2023-05-20T01:41:30;101034.41;;;12.77;86.79
66681;BME280;53575;51.366;12.350;2023-05-20T01:43:58;101025.66;;;12.80;86.61
66681;BME280;53575;51.366;12.350;2023-05-20T01:46:24;101030.94;;;12.72;87.16
66681;BME280;53575;51.366;12.350;2023-05-20T01:48:50;101030.91;;;12.80;87.15
66681;BME280;53575;51.366;12.350;2023-05-20T01:51:15;101027.41;;;12.81;86.81
66681;BME280;53575;51.366;12.350;2023-05-20T01:53:42;101033.53;;;12.74;87.15
66681;BME280;53575;51.366;12.350;2023-05-20T01:56:07;101035.31;;;12.62;88.30
66681;BME280;53575;51.366;12.350;2023-05-20T01:58:33;101037.94;;;12.68;88.00
66681;BME280;53575;51.366;12.350;2023-05-20T02:00:58;101030.03;;;12.79;87.22
66681;BME280;53575;51.366;12.350;2023-05-20T02:03:24;101022.19;;;12.75;87.48
66681;BME280;53575;51.366;12.350;2023-05-20T02:05:49;101026.56;;;12.71;87.47
66681;BME280;53575;51.366;12.350;2023-05-20T02:08:15;101029.19;;;12.76;87.44
66681;BME280;53575;51.366;12.350;2023-05-20T02:10:40;101030.06;;;12.70;87.76
66681;BME280;53575;51.366;12.350;2023-05-20T02:13:06;101028.31;;;12.66;87.85
66681;BME280;53575;51.366;12.350;2023-05-20T02:15:31;101032.69;;;12.62;88.23
66681;BME280;53575;51.366;12.350;2023-05-20T02:17:56;101035.28;;;12.70;88.13
66681;BME280;53575;51.366;12.350;2023-05-20T02:20:22;101028.31;;;12.66;88.54
66681;BME280;53575;51.366;12.350;2023-05-20T02:22:47;101027.44;;;12.70;88.06
66681;BME280;53575;51.366;12.350;2023-05-20T02:25:13;101026.56;;;12.69;88.30
66681;BME280;53575;51.366;12.350;2023-05-20T02:27:38;101021.34;;;12.71;88.39
66681;BME280;53575;51.366;12.350;2023-05-20T02:30:05;101023.09;;;12.67;88.62
66681;BME280;53575;51.366;12.350;2023-05-20T02:32:31;101018.69;;;12.66;88.83
66681;BME280;53575;51.366;12.350;2023-05-20T02:34:57;101019.56;;;12.73;88.07
66681;BME280;53575;51.366;12.350;2023-05-20T02:37:23;101023.94;;;12.73;88.42
66681;BME280;53575;51.366;12.350;2023-05-20T02:39:48;101028.34;;;12.64;88.44
66681;BME280;53575;51.366;12.350;2023-05-20T02:42:14;101029.22;;;12.60;88.94
66681;BME280;53575;51.366;12.350;2023-05-20T02:44:39;101030.06;;;12.68;88.69
66681;BME280;53575;51.366;12.350;2023-05-20T02:47:05;101025.69;;;12.63;89.14
66681;BME280;53575;51.366;12.350;2023-05-20T02:49:31;101031.81;;;12.65;89.30
66681;BME280;53575;51.366;12.350;2023-05-20T02:51:56;101036.19;;;12.66;89.12
66681;BME280;53575;51.366;12.350;2023-05-20T02:54:21;101033.56;;;12.69;89.02
66681;BME280;53575;51.366;12.350;2023-05-20T02:56:47;101030.91;;;12.74;88.88
66681;BME280;53575;51.366;12.350;2023-05-20T02:59:12;101029.19;;;12.73;88.62
66681;BME280;53575;51.366;12.350;2023-05-20T03:01:38;101025.72;;;12.71;88.85
66681;BME280;53575;51.366;12.350;2023-05-20T03:04:04;101028.34;;;12.71;89.10
66681;BME280;53575;51.366;12.350;2023-05-20T03:06:30;101024.81;;;12.73;88.81
66681;BME280;53575;51.366;12.350;2023-05-20T03:08:58;101022.19;;;12.75;88.76
66681;BME280;53575;51.366;12.350;2023-05-20T03:11:26;101028.34;;;12.67;88.98
66681;BME280;53575;51.366;12.350;2023-05-20T03:13:52;101031.81;;;12.71;89.15
66681;BME280;53575;51.366;12.350;2023-05-20T03:16:17;101020.44;;;12.66;89.53
66681;BME280;53575;51.366;12.350;2023-05-20T03:18:43;101021.34;;;12.65;89.37
66681;BME280;53575;51.366;12.350;2023-05-20T03:21:08;101014.38;;;12.58;89.99
66681;BME280;53575;51.366;12.350;2023-05-20T03:23:34;101015.22;;;12.58;89.90
66681;BME280;53575;51.366;12.350;2023-05-20T03:25:59;101026.59;;;12.63;89.88
66681;BME280;53575;51.366;12.350;2023-05-20T03:28:25;101031.88;;;12.48;91.00
66681;BME280;53575;51.366;12.350;2023-05-20T03:30:51;101025.75;;;12.54;90.39
66681;BME280;53575;51.366;12.350;2023-05-20T03:33:16;101029.25;;;12.56;90.37
66681;BME280;53575;51.366;12.350;2023-05-20T03:35:42;101027.50;;;12.46;90.73
66681;BME280;53575;51.366;12.350;2023-05-20T03:38:07;101025.78;;;12.41;91.34
66681;BME280;53575;51.366;12.350;2023-05-20T03:40:32;101030.13;;;12.39;91.34
66681;BME280;53575;51.366;12.350;2023-05-20T03:42:58;101028.38;;;12.43;91.69
66681;BME280;53575;51.366;12.350;2023-05-20T03:45:23;101018.81;;;12.33;91.65
66681;BME280;53575;51.366;12.350;2023-05-20T03:47:48;101023.16;;;12.38;91.38
66681;BME280;53575;51.366;12.350;2023-05-20T03:50:14;101023.16;;;12.35;91.76
66681;BME280;53575;51.366;12.350;2023-05-20T03:52:40;101017.94;;;12.28;92.09
66681;BME280;53575;51.366;12.350;2023-05-20T03:55:05;101024.94;;;12.23;92.80
66681;BME280;53575;51.366;12.350;2023-05-20T03:57:31;101015.31;;;12.34;92.11
66681;BME280;53575;51.366;12.350;2023-05-20T03:59:57;101017.94;;;12.37;91.56
66681;BME280;53575;51.366;12.350;2023-05-20T04:02:22;101017.91;;;12.35;92.05
66681;BME280;53575;51.366;12.350;2023-05-20T04:04:47;101022.31;;;12.36;91.82
66681;BME280;53575;51.366;12.350;2023-05-20T04:07:17;101021.44;;;12.37;91.63
66681;BME280;53575;51.366;12.350;2023-05-20T04:09:42;101027.53;;;12.41;91.75
66681;BME280;53575;51.366;12.350;2023-05-20T04:12:08;101029.31;;;12.30;92.11
66681;BME280;53575;51.366;12.350;2023-05-20T04:14:33;101027.53;;;12.35;91.66
66681;BME280;53575;51.366;12.350;2023-05-20T04:17:01;101029.28;;;12.45;91.34
66681;BME280;53575;51.366;12.350;2023-05-20T04:19:26;101030.13;;;12.53;91.22
66681;BME280;53575;51.366;12.350;2023-05-20T04:21:52;101031.84;;;12.57;90.85
66681;BME280;53575;51.366;12.350;2023-05-20T04:24:18;101032.72;;;12.59;90.62
66681;BME280;53575;51.366;12.350;2023-05-20T04:26:44;101035.34;;;12.59;90.44
66681;BME280;53575;51.366;12.350;2023-05-20T04:29:09;101042.34;;;12.56;90.71
66681;BME280;53575;51.366;12.350;2023-05-20T04:31:35;101037.94;;;12.68;90.02
66681;BME280;53575;51.366;12.350;2023-05-20T04:34:02;101034.44;;;12.73;89.61
66681;BME280;53575;51.366;12.350;2023-05-20T04:36:29;101023.06;;;12.78;89.33
66681;BME280;53575;51.366;12.350;2023-05-20T04:38:54;101022.13;;;12.85;89.08
66681;BME280;53575;51.366;12.350;2023-05-20T04:41:20;101024.75;;;12.87;88.66
66681;BME280;53575;51.366;12.350;2023-05-20T04:43:46;101021.19;;;12.97;88.19
66681;BME280;53575;51.366;12.350;2023-05-20T04:46:12;101029.97;;;12.95;88.48
66681;BME280;53575;51.366;12.350;2023-05-20T04:48:38;101026.44;;;12.97;88.36
66681;BME280;53575;51.366;12.350;2023-05-20T04:51:03;101038.72;;;12.93;88.76
66681;BME280;53575;51.366;12.350;2023-05-20T04:53:29;101042.19;;;13.00;88.59
66681;BME280;53575;51.366;12.350;2023-05-20T04:55:58;101050.84;;;13.19;87.49
66681;BME280;53575;51.366;12.350;2023-05-20T04:58:24;101056.13;;;13.13;87.33
66681;BME280;53575;51.366;12.350;2023-05-20T05:00:50;101053.47;;;13.25;87.07
66681;BME280;53575;51.366;12.350;2023-05-20T05:03:16;101058.69;;;13.33;86.43
66681;BME280;53575;51.366;12.350;2023-05-20T05:05:42;101052.53;;;13.34;86.48
66681;BME280;53575;51.366;12.350;2023-05-20T05:08:09;101042.91;;;13.36;86.75
66681;BME280;53575;51.366;12.350;2023-05-20T05:10:36;101049.91;;;13.40;85.99
66681;BME280;53575;51.366;12.350;2023-05-20T05:13:02;101049.00;;;13.38;86.12
66681;BME280;53575;51.366;12.350;2023-05-20T05:15:28;101042.91;;;13.37;85.98
66681;BME280;53575;51.366;12.350;2023-05-20T05:17:54;101049.84;;;13.48;85.57
66681;BME280;53575;51.366;12.350;2023-05-20T05:20:19;101045.50;;;13.39;86.02
66681;BME280;53575;51.366;12.350;2023-05-20T05:22:45;101044.59;;;13.46;85.74
66681;BME280;53575;51.366;12.350;2023-05-20T05:25:11;101049.81;;;13.55;85.43
66681;BME280;53575;51.366;12.350;2023-05-20T05:27:38;101051.50;;;13.62;85.37
66681;BME280;53575;51.366;12.350;2023-05-20T05:30:04;101048.88;;;13.58;85.48
66681;BME280;53575;51.366;12.350;2023-05-20T05:32:30;101030.41;;;13.75;84.56
66681;BME280;53575;51.366;12.350;2023-05-20T05:34:56;101037.34;;;13.80;84.47
66681;BME280;53575;51.366;12.350;2023-05-20T05:37:22;101023.38;;;13.75;84.33
66681;BME280;53575;51.366;12.350;2023-05-20T05:39:47;101010.31;;;13.68;84.90
66681;BME280;53575;51.366;12.350;2023-05-20T05:42:12;101002.44;;;13.68;84.82
66681;BME280;53575;51.366;12.350;2023-05-20T05:44:38;101006.72;;;13.79;84.26
66681;BME280;53575;51.366;12.350;2023-05-20T05:47:04;101000.59;;;13.79;84.46
66681;BME280;53575;51.366;12.350;2023-05-20T05:49:31;101000.59;;;13.79;84.14
66681;BME280;53575;51.366;12.350;2023-05-20T05:51:56;101004.97;;;13.77;84.52
66681;BME280;53575;51.366;12.350;2023-05-20T05:54:22;101012.94;;;13.68;85.28
66681;BME280;53575;51.366;12.350;2023-05-20T05:56:47;101013.78;;;13.70;84.85
66681;BME280;53575;51.366;12.350;2023-05-20T05:59:14;101014.63;;;13.78;84.48
66681;BME280;53575;51.366;12.350;2023-05-20T06:01:40;101021.59;;;13.77;84.71
66681;BME280;53575;51.366;12.350;2023-05-20T06:04:05;101019.81;;;13.84;84.46
66681;BME280;53575;51.366;12.350;2023-05-20T06:06:31;101016.25;;;13.88;84.34
66681;BME280;53575;51.366;12.350;2023-05-20T06:08:56;101018.97;;;13.82;84.43
66681;BME280;53575;51.366;12.350;2023-05-20T06:11:22;101023.19;;;13.98;83.53
66681;BME280;53575;51.366;12.350;2023-05-20T06:13:48;101007.41;;;14.01;83.42
66681;BME280;53575;51.366;12.350;2023-05-20T06:16:14;101006.56;;;13.96;84.00
66681;BME280;53575;51.366;12.350;2023-05-20T06:18:39;101009.19;;;13.98;83.86
66681;BME280;53575;51.366;12.350;2023-05-20T06:21:05;101007.31;;;14.10;83.41
66681;BME280;53575;51.366;12.350;2023-05-20T06:23:30;101005.56;;;14.09;83.11
66681;BME280;53575;51.366;12.350;2023-05-20T06:25:59;101012.69;;;13.98;84.03
66681;BME280;53575;51.366;12.350;2023-05-20T06:28:26;101023.94;;;14.12;83.10
66681;BME280;53575;51.366;12.350;2023-05-20T06:30:53;101017.78;;;14.15;82.69
66681;BME280;53575;51.366;12.350;2023-05-20T06:33:19;101023.03;;;14.15;82.65
66681;BME280;53575;51.366;12.350;2023-05-20T06:35:46;101014.22;;;14.24;82.26
66681;BME280;53575;51.366;12.350;2023-05-20T06:38:11;101024.63;;;14.30;82.27
66681;BME280;53575;51.366;12.350;2023-05-20T06:40:37;101024.72;;;14.22;82.34
66681;BME280;53575;51.366;12.350;2023-05-20T06:43:02;101022.09;;;14.19;82.74
66681;BME280;53575;51.366;12.350;2023-05-20T06:45:28;101020.31;;;14.27;82.47
66681;BME280;53575;51.366;12.350;2023-05-20T06:47:53;101017.75;;;14.20;82.73
66681;BME280;53575;51.366;12.350;2023-05-20T06:50:19;101009.88;;;14.15;82.65
66681;BME280;53575;51.366;12.350;2023-05-20T06:52:44;101009.94;;;14.10;82.94
66681;BME280;53575;51.366;12.350;2023-05-20T06:55:10;101014.28;;;14.14;83.06
66681;BME280;53575;51.366;12.350;2023-05-20T06:57:35;101007.25;;;14.17;83.33
66681;BME280;53575;51.366;12.350;2023-05-20T07:00:03;101005.50;;;14.15;83.43
66681;BME280;53575;51.366;12.350;2023-05-20T07:02:29;101008.97;;;14.21;82.87
66681;BME280;53575;51.366;12.350;2023-05-20T07:04:54;101004.63;;;14.17;82.78
66681;BME280;53575;51.366;12.350;2023-05-20T07:07:20;101004.59;;;14.21;82.95
66681;BME280;53575;51.366;12.350;2023-05-20T07:09:45;100998.47;;;14.21;83.23
66681;BME280;53575;51.366;12.350;2023-05-20T07:12:10;101001.13;;;14.16;83.28
66681;BME280;53575;51.366;12.350;2023-05-20T07:14:36;101000.22;;;14.19;82.77
66681;BME280;53575;51.366;12.350;2023-05-20T07:17:01;101002.84;;;14.20;82.47
66681;BME280;53575;51.366;12.350;2023-05-20T07:19:26;100998.47;;;14.21;82.99
66681;BME280;53575;51.366;12.350;2023-05-20T07:21:52;100996.63;;;14.26;83.46
66681;BME280;53575;51.366;12.350;2023-05-20T07:24:17;100984.13;;;14.49;82.29
66681;BME280;53575;51.366;12.350;2023-05-20T07:26:43;100985.84;;;14.55;81.66
66681;BME280;53575;51.366;12.350;2023-05-20T07:29:08;100983.19;;;14.58;81.98
66681;BME280;53575;51.366;12.350;2023-05-20T07:31:34;100983.47;;;15.04;80.20
66681;BME280;53575;51.366;12.350;2023-05-20T07:33:59;100978.84;;;15.20;78.84
66681;BME280;53575;51.366;12.350;2023-05-20T07:36:26;100973.69;;;15.13;78.94
66681;BME280;53575;51.366;12.350;2023-05-20T07:38:52;100974.69;;;15.02;79.14
66681;BME280;53575;51.366;12.350;2023-05-20T07:41:18;100975.69;;;14.94;79.81
66681;BME280;53575;51.366;12.350;2023-05-20T07:43:43;100971.13;;;15.06;79.44
66681;BME280;53575;51.366;12.350;2023-05-20T07:46:08;100971.16;;;15.05;79.68
66681;BME280;53575;51.366;12.350;2023-05-20T07:48:34;100971.03;;;15.16;79.38
66681;BME280;53575;51.366;12.350;2023-05-20T07:51:00;100965.53;;;15.31;78.42
66681;BME280;53575;51.366;12.350;2023-05-20T07:53:25;100968.00;;;15.40;78.17
66681;BME280;53575;51.366;12.350;2023-05-20T07:55:51;100966.00;;;15.56;77.55
66681;BME280;53575;51.366;12.350;2023-05-20T07:58:16;100957.66;;;15.85;76.29
66681;BME280;53575;51.366;12.350;2023-05-20T08:00:43;100962.31;;;16.19;74.70
66681;BME280;53575;51.366;12.350;2023-05-20T08:03:08;100958.56;;;16.29;74.11
66681;BME280;53575;51.366;12.350;2023-05-20T08:05:37;100963.34;;;16.55;73.69
66681;BME280;53575;51.366;12.350;2023-05-20T08:08:03;100966.81;;;16.57;72.56
66681;BME280;53575;51.366;12.350;2023-05-20T08:10:28;100968.59;;;16.56;72.95
66681;BME280;53575;51.366;12.350;2023-05-20T08:12:54;100967.09;;;16.43;73.26
66681;BME280;53575;51.366;12.350;2023-05-20T08:15:20;100964.34;;;16.48;72.88
66681;BME280;53575;51.366;12.350;2023-05-20T08:17:45;100962.56;;;16.50;73.02
66681;BME280;53575;51.366;12.350;2023-05-20T08:20:11;100951.75;;;16.62;72.33
66681;BME280;53575;51.366;12.350;2023-05-20T08:22:37;100955.06;;;16.73;72.20
66681;BME280;53575;51.366;12.350;2023-05-20T08:25:03;100954.44;;;16.61;72.50
66681;BME280;53575;51.366;12.350;2023-05-20T08:27:28;100958.38;;;16.40;73.43
66681;BME280;53575;51.366;12.350;2023-05-20T08:29:54;100949.75;;;16.31;74.03
66681;BME280;53575;51.366;12.350;2023-05-20T08:32:19;100955.97;;;16.27;73.90
66681;BME280;53575;51.366;12.350;2023-05-20T08:34:45;100955.25;;;16.19;74.74
66681;BME280;53575;51.366;12.350;2023-05-20T08:37:10;100951.78;;;16.17;74.85
66681;BME280;53575;51.366;12.350;2023-05-20T08:39:35;100954.44;;;16.16;74.95
66681;BME280;53575;51.366;12.350;2023-05-20T08:42:01;100955.00;;;15.85;75.43
66681;BME280;53575;51.366;12.350;2023-05-20T08:44:28;100954.22;;;15.78;75.52
66681;BME280;53575;51.366;12.350;2023-05-20T08:46:55;100950.47;;;15.93;75.03
66681;BME280;53575;51.366;12.350;2023-05-20T08:49:21;100954.69;;;16.02;75.06
66681;BME280;53575;51.366;12.350;2023-05-20T08:51:46;100954.34;;;16.20;74.09
66681;BME280;53575;51.366;12.350;2023-05-20T08:54:13;100949.53;;;16.42;73.91
66681;BME280;53575;51.366;12.350;2023-05-20T08:56:41;100941.94;;;16.69;73.26
66681;BME280;53575;51.366;12.350;2023-05-20T08:59:08;100934.31;;;16.98;71.60
66681;BME280;53575;51.366;12.350;2023-05-20T09:01:37;100930.50;;;17.10;70.58
66681;BME280;53575;51.366;12.350;2023-05-20T09:04:05;100932.69;;;17.30;70.03
66681;BME280;53575;51.366;12.350;2023-05-20T09:06:41;100930.91;;;17.30;69.61
66681;BME280;53575;51.366;12.350;2023-05-20T09:09:10;100919.09;;;17.08;70.54
66681;BME280;53575;51.366;12.350;2023-05-20T09:11:36;100924.63;;;16.97;71.42
66681;BME280;53575;51.366;12.350;2023-05-20T09:14:01;100922.97;;;17.30;71.11
66681;BME280;53575;51.366;12.350;2023-05-20T09:16:26;100922.53;;;17.49;69.61
66681;BME280;53575;51.366;12.350;2023-05-20T09:18:54;100925.88;;;17.20;70.20
66681;BME280;53575;51.366;12.350;2023-05-20T09:21:27;100919.63;;;16.85;70.84
66681;BME280;53575;51.366;12.350;2023-05-20T09:23:53;100925.84;;;16.83;71.21
66681;BME280;53575;51.366;12.350;2023-05-20T09:26:22;100919.66;;;16.84;71.62
66681;BME280;53575;51.366;12.350;2023-05-20T09:28:48;100917.03;;;16.82;71.46
66681;BME280;53575;51.366;12.350;2023-05-20T09:31:13;100915.72;;;17.03;71.16
66681;BME280;53575;51.366;12.350;2023-05-20T09:33:39;100921.19;;;17.31;70.65
66681;BME280;53575;51.366;12.350;2023-05-20T09:36:08;100916.19;;;17.56;69.52
66681;BME280;53575;51.366;12.350;2023-05-20T09:38:38;100918.06;;;17.51;69.59
66681;BME280;53575;51.366;12.350;2023-05-20T09:41:12;100905.03;;;17.43;69.94
66681;BME280;53575;51.366;12.350;2023-05-20T09:43:41;100915.38;;;17.52;69.66
66681;BME280;53575;51.366;12.350;2023-05-20T09:46:07;100904.75;;;17.56;69.75
66681;BME280;53575;51.366;12.350;2023-05-20T09:48:34;100898.16;;;17.70;69.38
66681;BME280;53575;51.366;12.350;2023-05-20T09:51:03;100896.63;;;17.97;68.45
66681;BME280;53575;51.366;12.350;2023-05-20T09:53:29;100896.72;;;18.25;67.18
66681;BME280;53575;51.366;12.350;2023-05-20T09:55:55;100897.13;;;18.41;66.50
66681;BME280;53575;51.366;12.350;2023-05-20T09:58:22;100887.47;;;18.40;66.37
66681;BME280;53575;51.366;12.350;2023-05-20T10:00:48;100883.09;;;18.39;66.16
66681;BME280;53575;51.366;12.350;2023-05-20T10:03:14;100885.56;;;17.83;67.18
66681;BME280;53575;51.366;12.350;2023-05-20T10:05:44;100883.91;;;17.43;69.09
66681;BME280;53575;51.366;12.350;2023-05-20T10:08:41;100880.84;;;17.60;68.64
66681;BME280;53575;51.366;12.350;2023-05-20T10:11:16;100879.06;;;17.61;69.08
66681;BME280;53575;51.366;12.350;2023-05-20T10:16:37;100871.75;;;17.70;68.80
66681;BME280;53575;51.366;12.350;2023-05-20T10:19:27;100865.66;;;18.32;67.14
66681;BME280;53575;51.366;12.350;2023-05-20T10:24:35;100862.41;;;18.52;66.81
66681;BME280;53575;51.366;12.350;2023-05-20T10:27:06;100863.13;;;18.57;66.03
66681;BME280;53575;51.366;12.350;2023-05-20T10:29:48;100862.38;;;18.24;67.11
66681;BME280;53575;51.366;12.350;2023-05-20T10:32:31;100859.66;;;18.25;66.74
66681;BME280;53575;51.366;12.350;2023-05-20T10:35:07;100858.75;;;17.95;67.62
66681;BME280;53575;51.366;12.350;2023-05-20T10:37:41;100856.19;;;17.92;68.53
66681;BME280;53575;51.366;12.350;2023-05-20T10:42:33;100844.22;;;18.41;67.52
66681;BME280;53575;51.366;12.350;2023-05-20T10:44:58;100845.13;;;18.98;66.26
66681;BME280;53575;51.366;12.350;2023-05-20T10:47:24;100841.03;;;19.14;64.28
66681;BME280;53575;51.366;12.350;2023-05-20T10:49:51;100832.06;;;19.18;63.89
66681;BME280;53575;51.366;12.350;2023-05-20T10:52:17;100836.06;;;18.77;65.21
66681;BME280;53575;51.366;12.350;2023-05-20T10:54:44;100836.97;;;18.78;65.16
66681;BME280;53575;51.366;12.350;2023-05-20T10:57:10;100825.06;;;18.61;65.43
66681;BME280;53575;51.366;12.350;2023-05-20T10:59:36;100832.63;;;18.75;65.54
66681;BME280;53575;51.366;12.350;2023-05-20T11:02:02;100818.72;;;18.95;65.14
66681;BME280;53575;51.366;12.350;2023-05-20T11:04:29;100828.88;;;19.09;65.09
66681;BME280;53575;51.366;12.350;2023-05-20T11:06:54;100823.09;;;19.22;64.47
66681;BME280;53575;51.366;12.350;2023-05-20T11:09:21;100818.72;;;19.21;64.01
66681;BME280;53575;51.366;12.350;2023-05-20T11:11:48;100809.41;;;18.83;65.23
66681;BME280;53575;51.366;12.350;2023-05-20T11:14:14;100811.88;;;18.60;66.15
66681;BME280;53575;51.366;12.350;2023-05-20T11:16:40;100814.25;;;18.70;66.15
66681;BME280;53575;51.366;12.350;2023-05-20T11:19:07;100810.59;;;18.45;65.74
66681;BME280;53575;51.366;12.350;2023-05-20T11:21:33;100810.97;;;18.61;66.12
66681;BME280;53575;51.366;12.350;2023-05-20T11:23:58;100804.31;;;19.04;65.70
66681;BME280;53575;51.366;12.350;2023-05-20T11:26:24;100802.03;;;19.44;64.24
66681;BME280;53575;51.366;12.350;2023-05-20T11:28:50;100798.47;;;19.45;63.12
66681;BME280;53575;51.366;12.350;2023-05-20T11:31:17;100801.47;;;19.61;62.25
66681;BME280;53575;51.366;12.350;2023-05-20T11:33:42;100800.78;;;19.30;62.77
66681;BME280;53575;51.366;12.350;2023-05-20T11:36:08;100797.88;;;19.37;63.19
66681;BME280;53575;51.366;12.350;2023-05-20T11:38:35;100792.66;;;19.34;62.84
66681;BME280;53575;51.366;12.350;2023-05-20T11:41:00;100792.25;;;19.46;62.53
66681;BME280;53575;51.366;12.350;2023-05-20T11:43:26;100781.00;;;19.65;62.54
66681;BME280;53575;51.366;12.350;2023-05-20T11:45:53;100771.78;;;19.77;62.20
66681;BME280;53575;51.366;12.350;2023-05-20T11:48:20;100776.78;;;19.84;61.48
66681;BME280;53575;51.366;12.350;2023-05-20T11:50:46;100773.69;;;19.96;61.27
66681;BME280;53575;51.366;12.350;2023-05-20T11:53:16;100763.50;;;20.31;60.09
66681;BME280;53575;51.366;12.350;2023-05-20T11:55:54;100755.94;;;20.66;59.15
66681;BME280;53575;51.366;12.350;2023-05-20T11:58:24;100750.38;;;20.50;59.37
66681;BME280;53575;51.366;12.350;2023-05-20T12:00:50;100754.75;;;20.95;58.99
66681;BME280;53575;51.366;12.350;2023-05-20T12:03:16;100748.03;;;21.48;58.38
66681;BME280;53575;51.366;12.350;2023-05-20T12:05:42;100761.75;;;21.38;57.16
66681;BME280;53575;51.366;12.350;2023-05-20T12:08:08;100748.25;;;21.43;57.49
66681;BME280;53575;51.366;12.350;2023-05-20T12:10:34;100749.09;;;21.64;56.89
66681;BME280;53575;51.366;12.350;2023-05-20T12:13:01;100740.28;;;21.43;56.92
66681;BME280;53575;51.366;12.350;2023-05-20T12:15:27;100743.00;;;21.41;57.42
66681;BME280;53575;51.366;12.350;2023-05-20T12:17:53;100738.09;;;21.53;56.83
66681;BME280;53575;51.366;12.350;2023-05-20T12:20:21;100732.44;;;21.79;56.55
66681;BME280;53575;51.366;12.350;2023-05-20T12:22:47;100729.13;;;21.74;56.23
66681;BME280;53575;51.366;12.350;2023-05-20T12:25:15;100730.97;;;21.53;56.64
66681;BME280;53575;51.366;12.350;2023-05-20T12:27:42;100740.06;;;21.68;56.85
66681;BME280;53575;51.366;12.350;2023-05-20T12:30:08;100739.47;;;21.80;56.28
66681;BME280;53575;51.366;12.350;2023-05-20T12:32:37;100727.06;;;21.41;57.06
66681;BME280;53575;51.366;12.350;2023-05-20T12:35:03;100729.97;;;21.35;57.83
66681;BME280;53575;51.366;12.350;2023-05-20T12:37:29;100730.28;;;21.48;57.48
66681;BME280;53575;51.366;12.350;2023-05-20T12:39:55;100711.16;;;21.79;56.27
66681;BME280;53575;51.366;12.350;2023-05-20T12:42:21;100723.69;;;22.15;55.84
66681;BME280;53575;51.366;12.350;2023-05-20T12:44:46;100718.88;;;22.23;55.31